sensor_id;sensor_type;location;lat;lon;timestamp;temperature;humidity
75769;DHT22;64379;48.888;8.330;2024-01-30T00:01:41;0.00;90.20
75769;DHT22;64379;48.888;8.330;2024-01-30T00:04:07;0.00;90.10
75769;DHT22;64379;48.888;8.330;2024-01-30T00:06:32;0.10;90.10
75769;DHT22;64379;48.888;8.330;2024-01-30T00:08:58;0.20;90.00
75769;DHT22;64379;48.888;8.330;2024-01-30T00:11:24;0.20;89.70
75769;DHT22;64379;48.888;8.330;2024-01-30T00:13:51;0.20;89.70
75769;DHT22;64379;48.888;8.330;2024-01-30T00:16:21;0.20;89.70
75769;DHT22;64379;48.888;8.330;2024-01-30T00:18:47;0.20;89.60
75769;DHT22;64379;48.888;8.330;2024-01-30T00:21:13;0.20;89.60
75769;DHT22;64379;48.888;8.330;2024-01-30T00:23:38;0.20;89.50
75769;DHT22;64379;48.888;8.330;2024-01-30T00:26:04;0.30;89.40
75769;DHT22;64379;48.888;8.330;2024-01-30T00:28:30;0.30;89.40
75769;DHT22;64379;48.888;8.330;2024-01-30T00:30:56;0.30;89.30
75769;DHT22;64379;48.888;8.330;2024-01-30T00:33:22;0.30;89.30
75769;DHT22;64379;48.888;8.330;2024-01-30T00:35:48;0.30;89.30
75769;DHT22;64379;48.888;8.330;2024-01-30T00:38:13;0.20;89.20
75769;DHT22;64379;48.888;8.330;2024-01-30T00:40:39;0.20;89.00
75769;DHT22;64379;48.888;8.330;2024-01-30T00:43:04;0.20;88.90
75769;DHT22;64379;48.888;8.330;2024-01-30T00:45:30;0.10;88.80
75769;DHT22;64379;48.888;8.330;2024-01-30T00:47:55;0.00;89.00
75769;DHT22;64379;48.888;8.330;2024-01-30T00:50:21;0.10;88.90
75769;DHT22;64379;48.888;8.330;2024-01-30T00:52:47;0.10;88.70
75769;DHT22;64379;48.888;8.330;2024-01-30T00:55:12;0.00;88.70
75769;DHT22;64379;48.888;8.330;2024-01-30T00:57:39;0.10;88.70
75769;DHT22;64379;48.888;8.330;2024-01-30T01:00:06;0.20;88.70
75769;DHT22;64379;48.888;8.330;2024-01-30T01:02:34;0.20;88.60
75769;DHT22;64379;48.888;8.330;2024-01-30T01:05:00;0.20;88.70
75769;DHT22;64379;48.888;8.330;2024-01-30T01:07:26;0.00;88.70
75769;DHT22;64379;48.888;8.330;2024-01-30T01:09:51;0.10;88.60
75769;DHT22;64379;48.888;8.330;2024-01-30T01:12:17;0.00;88.50
75769;DHT22;64379;48.888;8.330;2024-01-30T01:14:42;0.00;88.50
75769;DHT22;64379;48.888;8.330;2024-01-30T01:17:08;0.00;88.40
75769;DHT22;64379;48.888;8.330;2024-01-30T01:19:34;0.00;88.40
75769;DHT22;64379;48.888;8.330;2024-01-30T01:21:59;0.00;88.60
75769;DHT22;64379;48.888;8.330;2024-01-30T01:24:25;0.10;88.40
75769;DHT22;64379;48.888;8.330;2024-01-30T01:26:50;0.10;88.50
75769;DHT22;64379;48.888;8.330;2024-01-30T01:29:16;-0.10;88.40
75769;DHT22;64379;48.888;8.330;2024-01-30T01:31:42;-0.10;88.30
75769;DHT22;64379;48.888;8.330;2024-01-30T01:34:11;-0.10;88.30
75769;DHT22;64379;48.888;8.330;2024-01-30T01:36:37;-0.20;88.40
75769;DHT22;64379;48.888;8.330;2024-01-30T01:39:02;-0.10;88.40
75769;DHT22;64379;48.888;8.330;2024-01-30T01:41:34;-0.10;88.30
75769;DHT22;64379;48.888;8.330;2024-01-30T01:44:00;0.00;88.40
75769;DHT22;64379;48.888;8.330;2024-01-30T01:46:27;0.00;88.50
75769;DHT22;64379;48.888;8.330;2024-01-30T01:48:55;0.00;88.80
75769;DHT22;64379;48.888;8.330;2024-01-30T01:51:22;0.00;88.90
75769;DHT22;64379;48.888;8.330;2024-01-30T01:53:48;0.10;88.70
75769;DHT22;64379;48.888;8.330;2024-01-30T01:56:14;0.00;88.80
75769;DHT22;64379;48.888;8.330;2024-01-30T01:58:40;0.10;88.90
75769;DHT22;64379;48.888;8.330;2024-01-30T02:01:07;0.10;88.80
75769;DHT22;64379;48.888;8.330;2024-01-30T02:03:34;0.10;88.80
75769;DHT22;64379;48.888;8.330;2024-01-30T02:06:00;0.10;88.80
75769;DHT22;64379;48.888;8.330;2024-01-30T02:08:27;0.10;88.60
75769;DHT22;64379;48.888;8.330;2024-01-30T02:10:53;0.00;88.50
75769;DHT22;64379;48.888;8.330;2024-01-30T02:13:20;0.00;88.50
75769;DHT22;64379;48.888;8.330;2024-01-30T02:15:49;0.00;88.60
75769;DHT22;64379;48.888;8.330;2024-01-30T02:18:15;0.00;88.70
75769;DHT22;64379;48.888;8.330;2024-01-30T02:20:41;0.00;88.70
75769;DHT22;64379;48.888;8.330;2024-01-30T02:23:07;0.00;88.70
75769;DHT22;64379;48.888;8.330;2024-01-30T02:25:38;-0.20;88.80
75769;DHT22;64379;48.888;8.330;2024-01-30T02:28:03;-0.50;88.90
75769;DHT22;64379;48.888;8.330;2024-01-30T02:30:29;-0.50;89.00
75769;DHT22;64379;48.888;8.330;2024-01-30T02:32:55;-0.40;88.90
75769;DHT22;64379;48.888;8.330;2024-01-30T02:35:20;-0.40;89.00
75769;DHT22;64379;48.888;8.330;2024-01-30T02:37:46;-0.40;89.30
75769;DHT22;64379;48.888;8.330;2024-01-30T02:40:11;-0.60;89.40
75769;DHT22;64379;48.888;8.330;2024-01-30T02:42:37;-0.90;89.60
75769;DHT22;64379;48.888;8.330;2024-01-30T02:45:03;-0.90;89.70
75769;DHT22;64379;48.888;8.330;2024-01-30T02:47:28;-0.80;89.60
75769;DHT22;64379;48.888;8.330;2024-01-30T02:49:54;-0.70;89.70
75769;DHT22;64379;48.888;8.330;2024-01-30T02:52:19;-0.70;89.70
75769;DHT22;64379;48.888;8.330;2024-01-30T02:54:45;-0.70;89.90
75769;DHT22;64379;48.888;8.330;2024-01-30T02:57:11;-0.80;90.10
75769;DHT22;64379;48.888;8.330;2024-01-30T02:59:36;-0.90;90.10
75769;DHT22;64379;48.888;8.330;2024-01-30T03:02:02;-0.90;90.30
75769;DHT22;64379;48.888;8.330;2024-01-30T03:04:28;-0.90;90.40
75769;DHT22;64379;48.888;8.330;2024-01-30T03:06:55;-0.90;90.50
75769;DHT22;64379;48.888;8.330;2024-01-30T03:09:21;-0.70;90.40
75769;DHT22;64379;48.888;8.330;2024-01-30T03:11:46;-0.70;90.20
75769;DHT22;64379;48.888;8.330;2024-01-30T03:14:12;-0.70;90.30
75769;DHT22;64379;48.888;8.330;2024-01-30T03:16:38;-0.70;90.20
75769;DHT22;64379;48.888;8.330;2024-01-30T03:19:05;-0.60;90.20
75769;DHT22;64379;48.888;8.330;2024-01-30T03:21:33;-0.60;90.10
75769;DHT22;64379;48.888;8.330;2024-01-30T03:23:58;-0.60;90.10
75769;DHT22;64379;48.888;8.330;2024-01-30T03:26:24;-0.60;89.90
75769;DHT22;64379;48.888;8.330;2024-01-30T03:28:50;-0.60;89.90
75769;DHT22;64379;48.888;8.330;2024-01-30T03:31:16;-0.60;89.70
75769;DHT22;64379;48.888;8.330;2024-01-30T03:33:41;-0.50;89.70
75769;DHT22;64379;48.888;8.330;2024-01-30T03:36:08;-0.40;90.00
75769;DHT22;64379;48.888;8.330;2024-01-30T03:38:34;-0.30;90.30
75769;DHT22;64379;48.888;8.330;2024-01-30T03:41:00;-0.20;90.30
75769;DHT22;64379;48.888;8.330;2024-01-30T03:43:26;-0.20;90.30
75769;DHT22;64379;48.888;8.330;2024-01-30T03:45:52;-0.20;90.30
75769;DHT22;64379;48.888;8.330;2024-01-30T03:48:17;-0.40;90.30
75769;DHT22;64379;48.888;8.330;2024-01-30T03:50:43;-0.40;90.10
75769;DHT22;64379;48.888;8.330;2024-01-30T03:53:09;-0.40;90.00
75769;DHT22;64379;48.888;8.330;2024-01-30T03:55:34;-0.40;90.10
75769;DHT22;64379;48.888;8.330;2024-01-30T03:58:00;-0.30;90.00
75769;DHT22;64379;48.888;8.330;2024-01-30T04:00:25;-0.30;90.00
75769;DHT22;64379;48.888;8.330;2024-01-30T04:02:51;-0.30;89.80
75769;DHT22;64379;48.888;8.330;2024-01-30T04:05:17;-0.30;89.80
75769;DHT22;64379;48.888;8.330;2024-01-30T04:07:43;-0.30;89.60
75769;DHT22;64379;48.888;8.330;2024-01-30T04:10:09;-0.30;89.60
75769;DHT22;64379;48.888;8.330;2024-01-30T04:12:35;-0.30;89.60
75769;DHT22;64379;48.888;8.330;2024-01-30T04:15:02;-0.30;89.30
75769;DHT22;64379;48.888;8.330;2024-01-30T04:17:28;-0.30;89.10
75769;DHT22;64379;48.888;8.330;2024-01-30T04:19:54;-0.30;89.00
75769;DHT22;64379;48.888;8.330;2024-01-30T04:22:20;-0.30;89.00
75769;DHT22;64379;48.888;8.330;2024-01-30T04:24:46;-0.30;89.10
75769;DHT22;64379;48.888;8.330;2024-01-30T04:27:12;-0.40;89.10
75769;DHT22;64379;48.888;8.330;2024-01-30T04:29:37;-0.40;89.10
75769;DHT22;64379;48.888;8.330;2024-01-30T04:32:03;-0.60;89.20
75769;DHT22;64379;48.888;8.330;2024-01-30T04:34:29;-0.90;89.00
75769;DHT22;64379;48.888;8.330;2024-01-30T04:36:55;-1.10;89.00
75769;DHT22;64379;48.888;8.330;2024-01-30T04:39:20;-1.30;89.20
75769;DHT22;64379;48.888;8.330;2024-01-30T04:41:46;-1.10;89.20
75769;DHT22;64379;48.888;8.330;2024-01-30T04:44:12;-1.10;89.50
75769;DHT22;64379;48.888;8.330;2024-01-30T04:46:37;-1.00;89.50
75769;DHT22;64379;48.888;8.330;2024-01-30T04:49:03;-0.90;89.50
75769;DHT22;64379;48.888;8.330;2024-01-30T04:51:29;-0.80;89.40
75769;DHT22;64379;48.888;8.330;2024-01-30T04:53:55;-0.70;89.40
75769;DHT22;64379;48.888;8.330;2024-01-30T04:56:21;-0.70;89.40
75769;DHT22;64379;48.888;8.330;2024-01-30T04:58:46;-0.70;89.50
75769;DHT22;64379;48.888;8.330;2024-01-30T05:01:18;-0.60;89.70
75769;DHT22;64379;48.888;8.330;2024-01-30T05:03:44;-0.60;89.70
75769;DHT22;64379;48.888;8.330;2024-01-30T05:06:10;-0.70;89.70
75769;DHT22;64379;48.888;8.330;2024-01-30T05:08:36;-0.70;89.70
75769;DHT22;64379;48.888;8.330;2024-01-30T05:11:07;-0.80;89.70
75769;DHT22;64379;48.888;8.330;2024-01-30T05:13:33;-0.90;89.80
75769;DHT22;64379;48.888;8.330;2024-01-30T05:15:58;-0.90;89.90
75769;DHT22;64379;48.888;8.330;2024-01-30T05:18:24;-0.90;89.90
75769;DHT22;64379;48.888;8.330;2024-01-30T05:20:50;-0.80;89.90
75769;DHT22;64379;48.888;8.330;2024-01-30T05:23:16;-0.70;89.70
75769;DHT22;64379;48.888;8.330;2024-01-30T05:25:42;-0.80;89.70
75769;DHT22;64379;48.888;8.330;2024-01-30T05:28:07;-0.70;89.70
75769;DHT22;64379;48.888;8.330;2024-01-30T05:30:33;-0.70;89.70
75769;DHT22;64379;48.888;8.330;2024-01-30T05:32:59;-0.70;89.60
75769;DHT22;64379;48.888;8.330;2024-01-30T05:35:24;-0.70;89.50
75769;DHT22;64379;48.888;8.330;2024-01-30T05:37:50;-0.70;89.70
75769;DHT22;64379;48.888;8.330;2024-01-30T05:40:16;-0.80;89.70
75769;DHT22;64379;48.888;8.330;2024-01-30T05:42:42;-1.00;89.70
75769;DHT22;64379;48.888;8.330;2024-01-30T05:45:08;-1.10;89.80
75769;DHT22;64379;48.888;8.330;2024-01-30T05:47:35;-1.10;89.90
75769;DHT22;64379;48.888;8.330;2024-01-30T05:50:00;-1.10;90.00
75769;DHT22;64379;48.888;8.330;2024-01-30T05:52:26;-1.00;90.20
75769;DHT22;64379;48.888;8.330;2024-01-30T05:54:51;-1.00;90.30
75769;DHT22;64379;48.888;8.330;2024-01-30T05:57:17;-0.90;90.30
75769;DHT22;64379;48.888;8.330;2024-01-30T05:59:44;-0.80;90.30
75769;DHT22;64379;48.888;8.330;2024-01-30T06:02:10;-0.70;90.30
75769;DHT22;64379;48.888;8.330;2024-01-30T06:04:36;-0.70;90.30
75769;DHT22;64379;48.888;8.330;2024-01-30T06:07:02;-0.70;90.20
75769;DHT22;64379;48.888;8.330;2024-01-30T06:09:28;-0.70;90.30
75769;DHT22;64379;48.888;8.330;2024-01-30T06:11:54;-0.90;90.20
75769;DHT22;64379;48.888;8.330;2024-01-30T06:14:20;-0.80;90.20
75769;DHT22;64379;48.888;8.330;2024-01-30T06:16:46;-0.80;90.10
75769;DHT22;64379;48.888;8.330;2024-01-30T06:19:12;-0.70;90.00
75769;DHT22;64379;48.888;8.330;2024-01-30T06:21:37;-0.70;90.10
75769;DHT22;64379;48.888;8.330;2024-01-30T06:24:04;-0.70;90.00
75769;DHT22;64379;48.888;8.330;2024-01-30T06:26:30;-0.60;89.90
75769;DHT22;64379;48.888;8.330;2024-01-30T06:28:55;-0.60;89.90
75769;DHT22;64379;48.888;8.330;2024-01-30T06:31:21;-0.70;90.00
75769;DHT22;64379;48.888;8.330;2024-01-30T06:33:47;-0.90;89.80
75769;DHT22;64379;48.888;8.330;2024-01-30T06:36:13;-1.00;89.70
75769;DHT22;64379;48.888;8.330;2024-01-30T06:38:39;-1.00;89.70
75769;DHT22;64379;48.888;8.330;2024-01-30T06:41:04;-1.00;89.70
75769;DHT22;64379;48.888;8.330;2024-01-30T06:43:30;-0.90;89.70
75769;DHT22;64379;48.888;8.330;2024-01-30T06:45:55;-1.00;89.70
75769;DHT22;64379;48.888;8.330;2024-01-30T06:48:21;-1.00;89.70
75769;DHT22;64379;48.888;8.330;2024-01-30T06:50:47;-1.10;89.70
75769;DHT22;64379;48.888;8.330;2024-01-30T06:53:13;-1.30;89.90
75769;DHT22;64379;48.888;8.330;2024-01-30T06:55:39;-1.30;90.10
75769;DHT22;64379;48.888;8.330;2024-01-30T06:58:04;-1.40;90.40
75769;DHT22;64379;48.888;8.330;2024-01-30T07:00:30;-1.30;90.70
75769;DHT22;64379;48.888;8.330;2024-01-30T07:02:56;-1.30;90.70
75769;DHT22;64379;48.888;8.330;2024-01-30T07:05:22;-1.50;90.90
75769;DHT22;64379;48.888;8.330;2024-01-30T07:07:47;-1.60;90.80
75769;DHT22;64379;48.888;8.330;2024-01-30T07:10:13;-1.50;90.90
75769;DHT22;64379;48.888;8.330;2024-01-30T07:12:39;-1.60;90.90
75769;DHT22;64379;48.888;8.330;2024-01-30T07:15:05;-1.60;91.10
75769;DHT22;64379;48.888;8.330;2024-01-30T07:17:34;-1.50;91.20
75769;DHT22;64379;48.888;8.330;2024-01-30T07:19:59;-1.50;91.30
75769;DHT22;64379;48.888;8.330;2024-01-30T07:22:25;-1.40;91.40
75769;DHT22;64379;48.888;8.330;2024-01-30T07:24:50;-1.30;91.60
75769;DHT22;64379;48.888;8.330;2024-01-30T07:27:17;-1.10;91.50
75769;DHT22;64379;48.888;8.330;2024-01-30T07:29:43;-1.00;91.60
75769;DHT22;64379;48.888;8.330;2024-01-30T07:32:09;-0.90;91.60
75769;DHT22;64379;48.888;8.330;2024-01-30T07:34:34;-0.70;91.70
75769;DHT22;64379;48.888;8.330;2024-01-30T07:37:01;-0.60;91.70
75769;DHT22;64379;48.888;8.330;2024-01-30T07:39:27;-0.50;91.80
75769;DHT22;64379;48.888;8.330;2024-01-30T07:41:53;-0.30;91.70
75769;DHT22;64379;48.888;8.330;2024-01-30T07:44:19;-0.20;91.70
75769;DHT22;64379;48.888;8.330;2024-01-30T07:46:44;-0.10;91.80
75769;DHT22;64379;48.888;8.330;2024-01-30T07:49:10;0.00;91.80
75769;DHT22;64379;48.888;8.330;2024-01-30T07:51:35;0.00;91.80
75769;DHT22;64379;48.888;8.330;2024-01-30T07:54:01;-0.10;91.60
75769;DHT22;64379;48.888;8.330;2024-01-30T07:56:27;-0.10;91.50
75769;DHT22;64379;48.888;8.330;2024-01-30T07:58:52;0.00;91.40
75769;DHT22;64379;48.888;8.330;2024-01-30T08:01:18;0.40;91.50
75769;DHT22;64379;48.888;8.330;2024-01-30T08:03:44;0.60;91.40
75769;DHT22;64379;48.888;8.330;2024-01-30T08:06:10;0.90;91.30
75769;DHT22;64379;48.888;8.330;2024-01-30T08:08:35;1.00;91.30
75769;DHT22;64379;48.888;8.330;2024-01-30T08:11:01;1.20;91.20
75769;DHT22;64379;48.888;8.330;2024-01-30T08:13:27;1.40;91.20
75769;DHT22;64379;48.888;8.330;2024-01-30T08:15:53;1.60;91.10
75769;DHT22;64379;48.888;8.330;2024-01-30T08:18:18;1.40;90.40
75769;DHT22;64379;48.888;8.330;2024-01-30T08:20:44;1.20;89.30
75769;DHT22;64379;48.888;8.330;2024-01-30T08:23:09;1.50;89.20
75769;DHT22;64379;48.888;8.330;2024-01-30T08:25:35;1.40;88.30
75769;DHT22;64379;48.888;8.330;2024-01-30T08:28:02;1.50;88.00
75769;DHT22;64379;48.888;8.330;2024-01-30T08:30:27;1.50;87.20
75769;DHT22;64379;48.888;8.330;2024-01-30T08:32:53;1.00;86.30
75769;DHT22;64379;48.888;8.330;2024-01-30T08:35:18;0.80;87.00
75769;DHT22;64379;48.888;8.330;2024-01-30T08:37:44;0.90;87.70
75769;DHT22;64379;48.888;8.330;2024-01-30T08:40:10;0.80;87.90
75769;DHT22;64379;48.888;8.330;2024-01-30T08:42:35;1.00;88.20
75769;DHT22;64379;48.888;8.330;2024-01-30T08:45:01;1.10;88.60
75769;DHT22;64379;48.888;8.330;2024-01-30T08:47:27;1.20;88.60
75769;DHT22;64379;48.888;8.330;2024-01-30T08:49:53;1.20;88.60
75769;DHT22;64379;48.888;8.330;2024-01-30T08:52:18;1.50;88.70
75769;DHT22;64379;48.888;8.330;2024-01-30T08:54:44;1.70;88.60
75769;DHT22;64379;48.888;8.330;2024-01-30T08:57:10;2.00;88.90
75769;DHT22;64379;48.888;8.330;2024-01-30T08:59:35;2.30;88.60
75769;DHT22;64379;48.888;8.330;2024-01-30T09:02:01;2.50;88.20
75769;DHT22;64379;48.888;8.330;2024-01-30T09:04:26;2.70;87.90
75769;DHT22;64379;48.888;8.330;2024-01-30T09:06:52;2.70;86.90
75769;DHT22;64379;48.888;8.330;2024-01-30T09:09:17;2.50;85.80
75769;DHT22;64379;48.888;8.330;2024-01-30T09:11:43;2.50;85.60
75769;DHT22;64379;48.888;8.330;2024-01-30T09:14:09;2.50;85.50
75769;DHT22;64379;48.888;8.330;2024-01-30T09:16:35;2.70;86.10
75769;DHT22;64379;48.888;8.330;2024-01-30T09:19:00;3.00;86.60
75769;DHT22;64379;48.888;8.330;2024-01-30T09:21:26;2.90;85.10
75769;DHT22;64379;48.888;8.330;2024-01-30T09:23:54;3.00;85.40
75769;DHT22;64379;48.888;8.330;2024-01-30T09:26:20;2.70;85.70
75769;DHT22;64379;48.888;8.330;2024-01-30T09:28:45;3.00;86.60
75769;DHT22;64379;48.888;8.330;2024-01-30T09:31:12;3.20;86.20
75769;DHT22;64379;48.888;8.330;2024-01-30T09:33:38;3.30;85.20
75769;DHT22;64379;48.888;8.330;2024-01-30T09:36:05;3.50;84.70
75769;DHT22;64379;48.888;8.330;2024-01-30T09:38:30;3.60;84.30
75769;DHT22;64379;48.888;8.330;2024-01-30T09:40:57;3.70;84.00
75769;DHT22;64379;48.888;8.330;2024-01-30T09:43:31;4.00;83.90
75769;DHT22;64379;48.888;8.330;2024-01-30T09:45:59;4.00;83.00
75769;DHT22;64379;48.888;8.330;2024-01-30T09:48:25;4.40;83.40
75769;DHT22;64379;48.888;8.330;2024-01-30T09:50:52;4.80;82.40
75769;DHT22;64379;48.888;8.330;2024-01-30T09:53:19;5.30;80.50
75769;DHT22;64379;48.888;8.330;2024-01-30T09:55:46;5.10;79.00
75769;DHT22;64379;48.888;8.330;2024-01-30T09:58:12;5.30;79.80
75769;DHT22;64379;48.888;8.330;2024-01-30T10:00:38;5.50;79.30
75769;DHT22;64379;48.888;8.330;2024-01-30T10:03:04;5.90;79.30
75769;DHT22;64379;48.888;8.330;2024-01-30T10:05:31;6.30;77.80
75769;DHT22;64379;48.888;8.330;2024-01-30T10:07:59;6.50;76.80
75769;DHT22;64379;48.888;8.330;2024-01-30T10:10:25;6.50;75.80
75769;DHT22;64379;48.888;8.330;2024-01-30T10:12:50;6.40;76.00
75769;DHT22;64379;48.888;8.330;2024-01-30T10:15:18;6.30;75.90
75769;DHT22;64379;48.888;8.330;2024-01-30T10:17:47;6.40;73.60
75769;DHT22;64379;48.888;8.330;2024-01-30T10:20:13;6.40;73.40
75769;DHT22;64379;48.888;8.330;2024-01-30T10:22:42;6.50;73.30
75769;DHT22;64379;48.888;8.330;2024-01-30T10:25:09;6.50;73.00
75769;DHT22;64379;48.888;8.330;2024-01-30T10:27:35;6.80;72.50
75769;DHT22;64379;48.888;8.330;2024-01-30T10:30:01;7.00;71.30
75769;DHT22;64379;48.888;8.330;2024-01-30T10:32:27;7.20;70.40
75769;DHT22;64379;48.888;8.330;2024-01-30T10:34:52;7.30;69.50
75769;DHT22;64379;48.888;8.330;2024-01-30T10:37:19;7.40;69.70
75769;DHT22;64379;48.888;8.330;2024-01-30T10:39:47;7.70;69.20
75769;DHT22;64379;48.888;8.330;2024-01-30T10:42:18;8.00;68.20
75769;DHT22;64379;48.888;8.330;2024-01-30T10:47:13;8.20;66.60
75769;DHT22;64379;48.888;8.330;2024-01-30T10:49:41;8.30;66.10
75769;DHT22;64379;48.888;8.330;2024-01-30T10:52:09;8.10;66.80
75769;DHT22;64379;48.888;8.330;2024-01-30T10:54:36;8.20;67.20
75769;DHT22;64379;48.888;8.330;2024-01-30T10:57:03;8.40;66.50
75769;DHT22;64379;48.888;8.330;2024-01-30T10:59:30;8.30;66.50
75769;DHT22;64379;48.888;8.330;2024-01-30T11:01:58;8.00;67.10
75769;DHT22;64379;48.888;8.330;2024-01-30T11:04:24;8.10;67.50
75769;DHT22;64379;48.888;8.330;2024-01-30T11:06:50;8.30;66.50
75769;DHT22;64379;48.888;8.330;2024-01-30T11:09:18;8.40;66.50
75769;DHT22;64379;48.888;8.330;2024-01-30T11:11:57;8.50;66.30
75769;DHT22;64379;48.888;8.330;2024-01-30T11:14:27;8.80;64.70
75769;DHT22;64379;48.888;8.330;2024-01-30T11:16:59;9.00;64.10
75769;DHT22;64379;48.888;8.330;2024-01-30T11:19:26;9.00;64.50
75769;DHT22;64379;48.888;8.330;2024-01-30T11:21:55;9.00;64.50
75769;DHT22;64379;48.888;8.330;2024-01-30T11:24:22;8.90;64.80
75769;DHT22;64379;48.888;8.330;2024-01-30T11:26:49;8.90;65.10
75769;DHT22;64379;48.888;8.330;2024-01-30T11:29:17;9.10;64.60
75769;DHT22;64379;48.888;8.330;2024-01-30T11:31:56;9.40;63.80
75769;DHT22;64379;48.888;8.330;2024-01-30T11:34:22;9.00;64.40
75769;DHT22;64379;48.888;8.330;2024-01-30T11:37:12;8.60;65.10
75769;DHT22;64379;48.888;8.330;2024-01-30T11:39:37;8.70;65.70
75769;DHT22;64379;48.888;8.330;2024-01-30T11:42:04;9.40;64.00
75769;DHT22;64379;48.888;8.330;2024-01-30T11:44:30;9.50;63.10
75769;DHT22;64379;48.888;8.330;2024-01-30T11:46:56;10.20;62.00
75769;DHT22;64379;48.888;8.330;2024-01-30T11:49:23;10.90;59.50
75769;DHT22;64379;48.888;8.330;2024-01-30T11:51:49;11.50;57.60
75769;DHT22;64379;48.888;8.330;2024-01-30T11:54:15;11.10;58.00
75769;DHT22;64379;48.888;8.330;2024-01-30T11:56:42;11.40;57.10
75769;DHT22;64379;48.888;8.330;2024-01-30T11:59:08;11.20;57.20
75769;DHT22;64379;48.888;8.330;2024-01-30T12:01:34;10.90;58.40
75769;DHT22;64379;48.888;8.330;2024-01-30T12:04:00;10.80;59.20
75769;DHT22;64379;48.888;8.330;2024-01-30T12:06:26;10.90;58.80
75769;DHT22;64379;48.888;8.330;2024-01-30T12:09:02;10.90;58.60
75769;DHT22;64379;48.888;8.330;2024-01-30T12:11:31;11.10;58.20
75769;DHT22;64379;48.888;8.330;2024-01-30T12:13:57;11.30;58.20
75769;DHT22;64379;48.888;8.330;2024-01-30T12:16:23;11.40;57.80
75769;DHT22;64379;48.888;8.330;2024-01-30T12:18:49;11.00;57.40
75769;DHT22;64379;48.888;8.330;2024-01-30T12:21:17;10.40;59.30
75769;DHT22;64379;48.888;8.330;2024-01-30T12:23:43;10.40;60.00
75769;DHT22;64379;48.888;8.330;2024-01-30T12:26:10;10.30;59.90
75769;DHT22;64379;48.888;8.330;2024-01-30T12:28:36;10.50;60.00
75769;DHT22;64379;48.888;8.330;2024-01-30T12:31:03;10.80;59.10
75769;DHT22;64379;48.888;8.330;2024-01-30T12:33:29;10.80;59.50
75769;DHT22;64379;48.888;8.330;2024-01-30T12:35:56;10.90;59.00
75769;DHT22;64379;48.888;8.330;2024-01-30T12:38:22;11.00;58.80
75769;DHT22;64379;48.888;8.330;2024-01-30T12:40:49;10.80;59.30
75769;DHT22;64379;48.888;8.330;2024-01-30T12:43:15;10.90;60.00
75769;DHT22;64379;48.888;8.330;2024-01-30T12:45:41;10.60;60.60
75769;DHT22;64379;48.888;8.330;2024-01-30T12:48:08;10.50;60.90
75769;DHT22;64379;48.888;8.330;2024-01-30T12:50:34;10.50;61.00
75769;DHT22;64379;48.888;8.330;2024-01-30T12:52:59;10.50;61.50
75769;DHT22;64379;48.888;8.330;2024-01-30T12:55:25;10.80;60.60
75769;DHT22;64379;48.888;8.330;2024-01-30T12:57:54;10.90;60.20
75769;DHT22;64379;48.888;8.330;2024-01-30T13:00:20;10.80;60.90
75769;DHT22;64379;48.888;8.330;2024-01-30T13:02:46;10.90;60.80
75769;DHT22;64379;48.888;8.330;2024-01-30T13:05:12;10.90;60.40
75769;DHT22;64379;48.888;8.330;2024-01-30T13:07:38;10.50;61.60
75769;DHT22;64379;48.888;8.330;2024-01-30T13:10:04;10.50;61.40
75769;DHT22;64379;48.888;8.330;2024-01-30T13:12:30;10.50;61.60
75769;DHT22;64379;48.888;8.330;2024-01-30T13:14:57;10.50;61.70
75769;DHT22;64379;48.888;8.330;2024-01-30T13:17:24;10.50;61.50
75769;DHT22;64379;48.888;8.330;2024-01-30T13:19:49;10.50;61.90
75769;DHT22;64379;48.888;8.330;2024-01-30T13:22:15;10.60;61.60
75769;DHT22;64379;48.888;8.330;2024-01-30T13:24:41;10.70;61.40
75769;DHT22;64379;48.888;8.330;2024-01-30T13:27:07;10.50;61.70
75769;DHT22;64379;48.888;8.330;2024-01-30T13:29:34;10.60;62.10
75769;DHT22;64379;48.888;8.330;2024-01-30T13:31:59;10.70;61.90
75769;DHT22;64379;48.888;8.330;2024-01-30T13:34:25;10.70;62.10
75769;DHT22;64379;48.888;8.330;2024-01-30T13:36:51;10.60;62.20
75769;DHT22;64379;48.888;8.330;2024-01-30T13:39:17;10.50;62.40
75769;DHT22;64379;48.888;8.330;2024-01-30T13:41:42;10.50;62.60
75769;DHT22;64379;48.888;8.330;2024-01-30T13:44:08;10.70;62.80
75769;DHT22;64379;48.888;8.330;2024-01-30T13:46:35;10.70;62.80
75769;DHT22;64379;48.888;8.330;2024-01-30T13:49:01;10.70;62.90
75769;DHT22;64379;48.888;8.330;2024-01-30T13:51:27;10.70;63.10
75769;DHT22;64379;48.888;8.330;2024-01-30T13:53:53;10.80;62.90
75769;DHT22;64379;48.888;8.330;2024-01-30T13:56:20;10.90;63.20
75769;DHT22;64379;48.888;8.330;2024-01-30T13:58:47;11.10;62.80
75769;DHT22;64379;48.888;8.330;2024-01-30T14:01:13;11.00;62.50
75769;DHT22;64379;48.888;8.330;2024-01-30T14:03:39;10.80;63.50
75769;DHT22;64379;48.888;8.330;2024-01-30T14:06:05;10.60;63.60
75769;DHT22;64379;48.888;8.330;2024-01-30T14:08:31;10.40;64.10
75769;DHT22;64379;48.888;8.330;2024-01-30T14:10:58;10.30;64.60
75769;DHT22;64379;48.888;8.330;2024-01-30T14:13:23;10.30;64.60
75769;DHT22;64379;48.888;8.330;2024-01-30T14:15:53;10.40;64.70
75769;DHT22;64379;48.888;8.330;2024-01-30T14:18:19;10.40;64.70
75769;DHT22;64379;48.888;8.330;2024-01-30T14:20:44;10.50;64.60
75769;DHT22;64379;48.888;8.330;2024-01-30T14:23:10;10.50;64.90
75769;DHT22;64379;48.888;8.330;2024-01-30T14:25:36;10.50;65.10
75769;DHT22;64379;48.888;8.330;2024-01-30T14:28:01;10.50;64.60
75769;DHT22;64379;48.888;8.330;2024-01-30T14:30:27;10.50;64.70
75769;DHT22;64379;48.888;8.330;2024-01-30T14:32:52;10.50;64.70
75769;DHT22;64379;48.888;8.330;2024-01-30T14:35:18;10.50;64.90
75769;DHT22;64379;48.888;8.330;2024-01-30T14:37:45;10.40;64.80
75769;DHT22;64379;48.888;8.330;2024-01-30T14:40:11;10.40;65.10
75769;DHT22;64379;48.888;8.330;2024-01-30T14:42:37;10.30;65.30
75769;DHT22;64379;48.888;8.330;2024-01-30T14:45:03;10.40;65.50
75769;DHT22;64379;48.888;8.330;2024-01-30T14:47:29;10.40;65.50
75769;DHT22;64379;48.888;8.330;2024-01-30T14:49:56;10.40;65.30
75769;DHT22;64379;48.888;8.330;2024-01-30T14:52:22;10.40;65.20
75769;DHT22;64379;48.888;8.330;2024-01-30T14:54:48;10.50;65.30
75769;DHT22;64379;48.888;8.330;2024-01-30T14:57:13;10.50;65.40
75769;DHT22;64379;48.888;8.330;2024-01-30T14:59:40;10.50;65.20
75769;DHT22;64379;48.888;8.330;2024-01-30T15:02:06;10.50;65.40
75769;DHT22;64379;48.888;8.330;2024-01-30T15:04:31;10.50;65.30
75769;DHT22;64379;48.888;8.330;2024-01-30T15:06:57;10.60;65.30
75769;DHT22;64379;48.888;8.330;2024-01-30T15:09:23;10.50;65.30
75769;DHT22;64379;48.888;8.330;2024-01-30T15:11:51;10.50;65.70
75769;DHT22;64379;48.888;8.330;2024-01-30T15:14:17;10.50;65.80
75769;DHT22;64379;48.888;8.330;2024-01-30T15:16:43;10.50;66.10
75769;DHT22;64379;48.888;8.330;2024-01-30T15:19:09;10.50;65.70
75769;DHT22;64379;48.888;8.330;2024-01-30T15:21:35;10.50;65.70
75769;DHT22;64379;48.888;8.330;2024-01-30T15:24:02;10.50;65.90
75769;DHT22;64379;48.888;8.330;2024-01-30T15:26:27;10.40;66.10
75769;DHT22;64379;48.888;8.330;2024-01-30T15:28:53;10.40;66.40
75769;DHT22;64379;48.888;8.330;2024-01-30T15:31:19;10.40;66.20
75769;DHT22;64379;48.888;8.330;2024-01-30T15:33:45;10.40;66.30